createdAt,value
2019-05-18T00:01:45.873Z,5.40
2019-05-18T00:04:36.203Z,5.43
2019-05-18T00:07:26.516Z,5.73
2019-05-18T00:10:16.911Z,5.63
2019-05-18T00:13:07.164Z,6.10
2019-05-18T00:15:57.319Z,5.40
2019-05-18T00:18:47.589Z,5.73
2019-05-18T00:21:37.574Z,5.93
2019-05-18T00:24:27.925Z,6.23
2019-05-18T00:27:18.381Z,6.43
2019-05-18T00:30:08.656Z,6.07
2019-05-18T00:32:58.783Z,6.77
2019-05-18T00:35:49.225Z,6.10
2019-05-18T00:38:39.464Z,6.67
2019-05-18T00:41:29.601Z,6.90
2019-05-18T00:44:19.829Z,6.70
2019-05-18T00:47:10.123Z,6.60
2019-05-18T00:50:00.371Z,6.50
2019-05-18T00:52:50.376Z,6.40
2019-05-18T00:55:40.397Z,6.30
2019-05-18T00:58:30.716Z,6.67
2019-05-18T01:01:20.847Z,6.70
2019-05-18T01:04:11.203Z,5.43
2019-05-18T01:07:01.375Z,4.67
2019-05-18T01:09:51.688Z,5.47
2019-05-18T01:12:41.821Z,4.77
2019-05-18T01:15:32.092Z,4.67
2019-05-18T01:18:22.078Z,4.33
2019-05-18T01:21:12.502Z,4.33
2019-05-18T01:24:02.498Z,4.33
2019-05-18T01:26:52.929Z,4.00
2019-05-18T01:29:43.324Z,4.23
2019-05-18T01:32:33.537Z,4.63
2019-05-18T01:35:23.414Z,4.67
2019-05-18T01:38:13.808Z,4.73
2019-05-18T01:41:04.036Z,4.37
2019-05-18T01:43:54.199Z,4.60
2019-05-18T01:46:44.499Z,4.33
2019-05-18T01:49:34.742Z,4.40
2019-05-18T01:52:25.122Z,4.67
2019-05-18T01:55:15.458Z,4.50
2019-05-18T01:58:05.877Z,4.30
2019-05-18T02:00:56.303Z,4.13
2019-05-18T02:03:46.343Z,4.60
2019-05-18T02:06:36.647Z,4.90
2019-05-18T02:09:26.816Z,4.70
2019-05-18T02:12:16.854Z,4.33
2019-05-18T02:15:07.188Z,4.17
2019-05-18T02:17:57.571Z,4.40
2019-05-18T02:20:47.807Z,4.20
2019-05-18T02:23:38.324Z,3.77
2019-05-18T02:26:28.724Z,4.00
2019-05-18T02:29:19.015Z,4.40
2019-05-18T02:32:08.943Z,3.93
2019-05-18T02:34:59.206Z,4.20
2019-05-18T02:37:49.432Z,4.13
2019-05-18T02:40:39.587Z,3.97
2019-05-18T02:43:29.833Z,4.37
2019-05-18T02:46:20.278Z,4.57
2019-05-18T02:49:10.463Z,4.50
2019-05-18T02:52:00.665Z,4.13
2019-05-18T02:54:50.873Z,3.77
2019-05-18T02:57:41.134Z,4.40
2019-05-18T03:00:31.162Z,4.30
2019-05-18T03:03:21.442Z,4.10
2019-05-18T03:06:11.604Z,4.10
2019-05-18T03:09:01.915Z,4.27
2019-05-18T03:11:53.052Z,4.60
2019-05-18T03:14:43.297Z,4.30
2019-05-18T03:17:36.844Z,4.00
2019-05-18T03:20:29.024Z,4.60
2019-05-18T03:23:19.261Z,4.37
2019-05-18T03:26:09.569Z,4.57
2019-05-18T03:28:59.948Z,4.30
2019-05-18T03:31:50.296Z,4.63
2019-05-18T03:34:40.254Z,4.47
2019-05-18T03:37:30.647Z,4.53
2019-05-18T03:40:20.866Z,4.47
2019-05-18T03:43:11.091Z,4.80
2019-05-18T03:46:01.332Z,4.40
2019-05-18T03:48:52.771Z,4.60
2019-05-18T03:51:42.872Z,4.43
2019-05-18T03:54:33.178Z,5.10
2019-05-18T03:57:23.547Z,4.70
2019-05-18T04:00:14.011Z,4.90
2019-05-18T04:03:04.336Z,4.97
2019-05-18T04:05:54.688Z,4.90
2019-05-18T04:08:44.635Z,4.67
2019-05-18T04:11:34.888Z,4.57
2019-05-18T04:14:25.114Z,4.70
2019-05-18T04:17:15.340Z,4.60
2019-05-18T04:20:05.522Z,4.53
2019-05-18T04:22:55.619Z,4.73
2019-05-18T04:25:46.553Z,4.60
2019-05-18T04:28:37.586Z,4.67
2019-05-18T04:31:32.218Z,4.37
2019-05-18T04:34:20.617Z,4.08
2019-05-18T04:37:12.628Z,4.45
2019-05-18T04:40:03.314Z,4.50
2019-05-18T04:42:53.832Z,4.40
2019-05-18T04:45:44.647Z,4.05
2019-05-18T04:48:35.144Z,4.30
2019-05-18T04:51:25.954Z,4.30
2019-05-18T04:54:16.776Z,4.80
2019-05-18T04:57:07.619Z,4.50
2019-05-18T04:59:58.456Z,4.15
2019-05-18T05:02:49.233Z,4.42
2019-05-18T05:05:39.869Z,4.30
2019-05-18T05:08:30.741Z,4.30
2019-05-18T05:11:21.677Z,4.55
2019-05-18T05:14:12.900Z,4.62
2019-05-18T05:17:03.852Z,4.70
2019-05-18T05:19:54.974Z,4.55
2019-05-18T05:22:45.949Z,4.40
2019-05-18T05:25:36.729Z,4.58
2019-05-18T05:28:27.245Z,4.72
2019-05-18T05:31:18.193Z,4.53
2019-05-18T05:34:09.084Z,4.65
2019-05-18T05:36:59.640Z,3.80
2019-05-18T05:39:50.228Z,4.57
2019-05-18T05:42:40.519Z,4.40
2019-05-18T05:45:31.166Z,4.50
2019-05-18T05:48:22.662Z,4.20
2019-05-18T05:51:12.905Z,4.80
2019-05-18T05:54:04.676Z,4.03
2019-05-18T05:56:55.360Z,4.30
2019-05-18T05:59:46.132Z,4.20
2019-05-18T06:02:36.512Z,4.53
2019-05-18T06:05:27.040Z,4.40
2019-05-18T06:08:17.341Z,4.40
2019-05-18T06:11:07.860Z,4.10
2019-05-18T06:13:58.382Z,4.10
2019-05-18T06:16:48.915Z,4.50
2019-05-18T06:19:39.467Z,4.50
2019-05-18T06:22:30.154Z,4.50
2019-05-18T06:25:20.442Z,4.73
2019-05-18T06:28:10.801Z,4.60
2019-05-18T06:31:01.481Z,4.60
2019-05-18T06:33:52.206Z,4.77
2019-05-18T06:36:42.894Z,4.63
2019-05-18T06:39:33.398Z,5.07
2019-05-18T06:42:23.535Z,4.87
2019-05-18T06:45:13.962Z,4.77
2019-05-18T06:48:04.546Z,4.83
2019-05-18T06:51:06.746Z,4.80
2019-05-18T06:53:46.715Z,4.80
2019-05-18T06:56:37.320Z,4.90
2019-05-18T06:59:27.920Z,4.40
2019-05-18T07:02:18.233Z,4.60
2019-05-18T07:05:08.888Z,5.53
2019-05-18T07:07:59.432Z,5.37
2019-05-18T07:10:50.095Z,5.43
2019-05-18T07:13:40.731Z,5.50
2019-05-18T07:16:31.233Z,5.00
2019-05-18T07:19:21.541Z,6.13
2019-05-18T07:22:11.996Z,5.83
2019-05-18T07:25:02.497Z,5.90
2019-05-18T07:27:52.804Z,5.50
2019-05-18T07:30:43.381Z,5.83
2019-05-18T07:33:33.790Z,6.03
2019-05-18T07:36:24.408Z,5.60
2019-05-18T07:39:15.243Z,5.87
2019-05-18T07:42:06.011Z,5.20
2019-05-18T07:44:56.530Z,5.90
2019-05-18T07:47:47.139Z,5.67
2019-05-18T07:50:37.912Z,5.55
2019-05-18T07:53:28.816Z,5.60
2019-05-18T07:56:19.659Z,5.55
2019-05-18T07:59:10.459Z,5.90
2019-05-18T08:02:01.322Z,5.60
2019-05-18T08:04:52.300Z,5.70
2019-05-18T08:07:43.037Z,5.75
2019-05-18T08:10:37.853Z,5.80
2019-05-18T08:13:28.539Z,5.65
2019-05-18T08:16:19.166Z,6.03
2019-05-18T08:19:09.741Z,6.00
2019-05-18T08:22:00.595Z,6.62
2019-05-18T08:24:51.423Z,5.85
2019-05-18T08:27:42.472Z,6.17
2019-05-18T08:30:33.162Z,6.20
2019-05-18T08:33:24.249Z,6.20
2019-05-18T08:36:15.151Z,6.33
2019-05-18T08:39:06.498Z,6.17
2019-05-18T08:41:57.114Z,5.92
2019-05-18T08:44:47.845Z,6.50
2019-05-18T08:47:38.714Z,6.37
2019-05-18T08:50:29.548Z,6.60
2019-05-18T08:53:20.140Z,5.53
2019-05-18T08:56:10.779Z,5.97
2019-05-18T08:59:01.342Z,6.07
2019-05-18T09:01:54.221Z,5.93
2019-05-18T09:04:44.858Z,5.87
2019-05-18T09:07:35.482Z,6.17
2019-05-18T09:10:26.032Z,6.03
2019-05-18T09:13:16.931Z,5.92
2019-05-18T09:16:08.893Z,6.20
2019-05-18T09:18:59.951Z,6.05
2019-05-18T09:21:50.932Z,6.50
2019-05-18T09:24:41.671Z,7.67
2019-05-18T09:27:32.582Z,6.45
2019-05-18T09:30:23.381Z,6.33
2019-05-18T09:33:14.224Z,6.78
2019-05-18T09:36:05.113Z,6.10
2019-05-18T09:38:55.717Z,6.30
2019-05-18T09:41:46.280Z,6.10
2019-05-18T09:44:37.150Z,6.05
2019-05-18T09:47:28.147Z,6.12
2019-05-18T09:50:18.929Z,5.72
2019-05-18T09:53:09.879Z,5.87
2019-05-18T09:56:00.594Z,5.12
2019-05-18T09:58:51.472Z,4.47
2019-05-18T10:01:42.147Z,4.22
2019-05-18T10:04:33.301Z,3.98
2019-05-18T10:07:24.844Z,3.80
2019-05-18T10:10:16.426Z,3.98
2019-05-18T10:13:07.352Z,3.80
2019-05-18T10:15:58.207Z,3.72
2019-05-18T10:18:48.717Z,3.92
2019-05-18T10:21:39.572Z,4.30
2019-05-18T10:24:32.074Z,4.85
2019-05-18T10:27:22.842Z,4.17
2019-05-18T10:30:13.621Z,5.00
2019-05-18T10:33:04.466Z,5.00
2019-05-18T10:35:55.290Z,5.30
2019-05-18T10:38:46.114Z,5.05
2019-05-18T10:41:36.942Z,4.97
2019-05-18T10:44:27.784Z,5.12
2019-05-18T10:47:18.604Z,5.37
2019-05-18T10:50:10.244Z,6.00
2019-05-18T10:53:00.884Z,5.58
2019-05-18T10:55:51.619Z,5.30
2019-05-18T10:58:42.821Z,5.87
2019-05-18T11:01:33.945Z,6.00
2019-05-18T11:04:24.591Z,5.80
2019-05-18T11:07:15.468Z,6.15
2019-05-18T11:10:06.955Z,5.75
2019-05-18T11:12:57.740Z,5.95
2019-05-18T11:15:48.368Z,5.87
2019-05-18T11:18:38.979Z,6.70
2019-05-18T11:21:29.807Z,5.05
2019-05-18T11:24:20.731Z,6.03
2019-05-18T11:27:11.550Z,5.65
2019-05-18T11:30:02.556Z,5.67
2019-05-18T11:32:53.522Z,5.95
2019-05-18T11:35:44.422Z,5.72
2019-05-18T11:38:35.287Z,5.28
2019-05-18T11:41:26.312Z,5.70
2019-05-18T11:44:17.363Z,6.20
2019-05-18T11:47:08.054Z,5.72
2019-05-18T11:49:59.299Z,6.60
2019-05-18T11:52:50.221Z,5.35
2019-05-18T11:55:40.777Z,5.67
2019-05-18T11:58:31.591Z,5.53
2019-05-18T12:01:22.246Z,5.10
2019-05-18T12:04:13.129Z,5.22
2019-05-18T12:07:04.082Z,5.85
2019-05-18T12:09:54.586Z,5.65
2019-05-18T12:12:45.381Z,5.25
2019-05-18T12:15:36.067Z,5.95
2019-05-18T12:18:26.914Z,5.70
2019-05-18T12:21:17.773Z,6.30
2019-05-18T12:24:15.445Z,5.47
2019-05-18T12:27:01.386Z,4.85
2019-05-18T12:29:52.329Z,4.40
2019-05-18T12:32:43.302Z,4.40
2019-05-18T12:35:34.172Z,4.22
2019-05-18T12:38:25.126Z,3.80
2019-05-18T12:41:17.412Z,4.80
2019-05-18T12:44:08.114Z,4.45
2019-05-18T12:46:58.711Z,4.25
2019-05-18T12:49:49.552Z,3.85
2019-05-18T12:52:40.148Z,3.72
2019-05-18T12:55:31.075Z,3.75
2019-05-18T12:58:21.836Z,2.87
2019-05-18T13:01:12.712Z,3.40
2019-05-18T13:04:03.366Z,3.45
2019-05-18T13:06:54.229Z,4.03
2019-05-18T13:09:45.104Z,4.15
2019-05-18T13:12:35.822Z,4.47
2019-05-18T13:15:26.700Z,4.30
2019-05-18T13:18:17.862Z,4.03
2019-05-18T13:21:08.907Z,4.25
2019-05-18T13:23:59.916Z,4.00
2019-05-18T13:26:50.856Z,3.70
2019-05-18T13:29:41.679Z,3.60
2019-05-18T13:32:32.402Z,3.92
2019-05-18T13:35:23.028Z,3.72
2019-05-18T13:38:13.837Z,3.60
2019-05-18T13:41:04.632Z,3.50
2019-05-18T13:43:55.479Z,3.50
2019-05-18T13:46:46.344Z,3.55
2019-05-18T13:49:37.227Z,3.25
2019-05-18T13:52:27.892Z,3.70
2019-05-18T13:55:18.728Z,3.42
2019-05-18T13:58:09.373Z,3.30
2019-05-18T14:01:00.294Z,3.60
2019-05-18T14:03:51.060Z,3.05
2019-05-18T14:06:41.967Z,3.27
2019-05-18T14:09:32.829Z,3.30
2019-05-18T14:12:23.575Z,3.42
2019-05-18T14:15:14.346Z,3.30
2019-05-18T14:18:05.136Z,3.00
2019-05-18T14:20:55.933Z,3.40
2019-05-18T14:23:46.760Z,3.33
2019-05-18T14:26:37.648Z,3.47
2019-05-18T14:29:29.519Z,3.20
2019-05-18T14:32:20.126Z,3.30
2019-05-18T14:35:10.952Z,3.30
2019-05-18T14:38:01.674Z,3.60
2019-05-18T14:40:52.407Z,3.40
2019-05-18T14:43:43.428Z,3.42
2019-05-18T14:46:34.237Z,3.70
2019-05-18T14:49:25.314Z,3.37
2019-05-18T14:52:16.295Z,3.83
2019-05-18T14:55:07.219Z,3.58
2019-05-18T14:57:57.719Z,3.40
2019-05-18T15:00:48.561Z,3.15
2019-05-18T15:03:39.302Z,3.80
2019-05-18T15:06:30.279Z,3.37
2019-05-18T15:09:20.888Z,4.90
2019-05-18T15:12:11.762Z,3.47
2019-05-18T15:15:02.511Z,3.75
2019-05-18T15:17:53.403Z,3.35
2019-05-18T15:20:44.259Z,3.40
2019-05-18T15:23:35.079Z,3.20
2019-05-18T15:26:25.884Z,2.98
2019-05-18T15:29:16.979Z,2.92
2019-05-18T15:32:08.033Z,2.98
2019-05-18T15:34:58.743Z,3.10
2019-05-18T15:37:49.501Z,2.98
2019-05-18T15:40:40.011Z,3.20
2019-05-18T15:43:30.768Z,3.10
2019-05-18T15:46:21.611Z,3.10
2019-05-18T15:49:12.195Z,3.33
2019-05-18T15:52:03.091Z,2.75
2019-05-18T15:54:53.963Z,2.90
2019-05-18T15:57:44.876Z,2.40
2019-05-18T16:00:35.514Z,2.60
2019-05-18T16:03:26.185Z,2.62
2019-05-18T16:06:17.077Z,2.70
2019-05-18T16:09:08.962Z,2.42
2019-05-18T16:11:59.647Z,2.67
2019-05-18T16:14:50.706Z,2.85
2019-05-18T16:17:41.619Z,2.58
2019-05-18T16:20:32.283Z,2.62
2019-05-18T16:23:23.078Z,2.65
2019-05-18T16:26:21.665Z,2.65
2019-05-18T16:29:05.935Z,4.05
2019-05-18T16:31:56.783Z,3.10
2019-05-18T16:34:47.582Z,2.77
2019-05-18T16:37:38.432Z,2.65
2019-05-18T16:40:29.121Z,3.05
2019-05-18T16:43:20.018Z,2.98
2019-05-18T16:46:10.607Z,2.90
2019-05-18T16:49:01.457Z,2.83
2019-05-18T16:51:52.287Z,2.65
2019-05-18T16:54:43.168Z,9.95
2019-05-18T16:57:33.485Z,6.73
2019-05-18T17:00:24.370Z,4.73
2019-05-18T17:03:14.773Z,4.67
2019-05-18T17:06:05.055Z,3.00
2019-05-18T17:08:55.033Z,3.07
2019-05-18T17:11:47.964Z,3.47
2019-05-18T17:14:36.637Z,3.60
2019-05-18T17:17:26.725Z,3.10
2019-05-18T17:20:17.362Z,3.30
2019-05-18T17:23:07.644Z,3.40
2019-05-18T17:25:57.891Z,3.47
2019-05-18T17:28:48.080Z,3.50
2019-05-18T17:31:38.452Z,3.20
2019-05-18T17:34:28.711Z,3.27
2019-05-18T17:37:18.681Z,3.50
2019-05-18T17:40:09.097Z,3.90
2019-05-18T17:42:59.361Z,3.97
2019-05-18T17:45:49.413Z,4.07
2019-05-18T17:48:40.727Z,4.20
2019-05-18T17:51:31.064Z,3.90
2019-05-18T17:54:22.048Z,4.37
2019-05-18T17:57:12.551Z,4.53
2019-05-18T18:00:03.030Z,4.40
2019-05-18T18:02:53.540Z,4.70
2019-05-18T18:05:43.539Z,4.30
2019-05-18T18:08:33.699Z,4.63
2019-05-18T18:11:24.742Z,4.73
2019-05-18T18:14:15.942Z,5.43
2019-05-18T18:17:06.197Z,5.10
2019-05-18T18:19:57.205Z,5.80
2019-05-18T18:22:47.343Z,5.13
2019-05-18T18:25:37.835Z,5.47
2019-05-18T18:28:28.000Z,5.33
2019-05-18T18:31:18.508Z,6.93
2019-05-18T18:34:08.960Z,6.47
2019-05-18T18:36:59.345Z,5.90
2019-05-18T18:39:49.687Z,5.60
2019-05-18T18:42:39.920Z,5.93
2019-05-18T18:45:30.140Z,6.57
2019-05-18T18:48:20.423Z,8.23
2019-05-18T18:51:10.645Z,5.73
2019-05-18T18:54:01.073Z,6.57
2019-05-18T18:56:52.070Z,5.90
2019-05-18T18:59:42.230Z,5.77
2019-05-18T19:02:32.616Z,5.80
2019-05-18T19:05:23.084Z,5.43
2019-05-18T19:08:13.372Z,6.10
2019-05-18T19:11:04.775Z,6.10
2019-05-18T19:13:55.126Z,5.57
2019-05-18T19:16:45.301Z,6.03
2019-05-18T19:19:35.480Z,6.30
2019-05-18T19:22:25.742Z,5.73
2019-05-18T19:25:15.930Z,6.10
2019-05-18T19:28:05.962Z,5.50
2019-05-18T19:30:56.232Z,5.13
2019-05-18T19:33:46.660Z,5.47
2019-05-18T19:36:37.140Z,5.37
2019-05-18T19:39:27.099Z,5.10
2019-05-18T19:42:17.298Z,5.00
2019-05-18T19:45:08.065Z,4.57
2019-05-18T19:47:58.229Z,5.30
2019-05-18T19:50:48.490Z,4.70
2019-05-18T19:53:38.736Z,5.03
2019-05-18T19:56:29.062Z,5.17
2019-05-18T19:59:19.412Z,5.30
2019-05-18T20:02:09.652Z,5.30
2019-05-18T20:05:07.402Z,5.20
2019-05-18T20:07:53.317Z,5.07
2019-05-18T20:10:43.588Z,5.27
2019-05-18T20:13:33.687Z,4.83
2019-05-18T20:16:23.806Z,5.33
2019-05-18T20:19:14.224Z,5.53
2019-05-18T20:22:04.448Z,5.33
2019-05-18T20:24:54.716Z,5.43
2019-05-18T20:27:44.915Z,5.80
2019-05-18T20:30:35.030Z,5.53
2019-05-18T20:33:25.363Z,5.97
2019-05-18T20:36:15.812Z,5.70
2019-05-18T20:39:06.663Z,5.87
2019-05-18T20:41:57.019Z,5.97
2019-05-18T20:44:47.236Z,5.63
2019-05-18T20:47:37.346Z,5.77
2019-05-18T20:50:27.549Z,5.80
2019-05-18T20:53:17.996Z,5.63
2019-05-18T20:56:08.217Z,5.40
2019-05-18T20:58:58.426Z,5.63
2019-05-18T21:01:48.861Z,5.43
2019-05-18T21:04:39.291Z,5.77
2019-05-18T21:07:29.546Z,6.10
2019-05-18T21:10:19.821Z,5.47
2019-05-18T21:13:10.029Z,5.20
2019-05-18T21:16:00.274Z,6.10
2019-05-18T21:18:50.221Z,5.50
2019-05-18T21:21:40.581Z,5.83
2019-05-18T21:24:30.853Z,5.97
2019-05-18T21:27:21.208Z,5.93
2019-05-18T21:30:11.569Z,5.80
2019-05-18T21:33:01.971Z,6.20
2019-05-18T21:35:52.382Z,6.60
2019-05-18T21:38:42.709Z,6.97
2019-05-18T21:41:32.931Z,6.40
2019-05-18T21:44:23.194Z,6.43
2019-05-18T21:47:13.393Z,6.83
2019-05-18T21:50:04.003Z,6.70
2019-05-18T21:52:55.367Z,7.07
2019-05-18T21:55:45.693Z,7.40
2019-05-18T21:58:35.949Z,6.90
2019-05-18T22:01:26.611Z,6.53
2019-05-18T22:04:16.761Z,7.07
2019-05-18T22:07:06.945Z,6.87
2019-05-18T22:09:57.221Z,7.37
2019-05-18T22:12:47.215Z,7.13
2019-05-18T22:15:37.424Z,7.20
2019-05-18T22:18:27.737Z,7.90
2019-05-18T22:21:17.995Z,6.97
2019-05-18T22:24:08.150Z,6.90
2019-05-18T22:26:58.148Z,6.57
2019-05-18T22:29:48.676Z,6.37
2019-05-18T22:32:39.056Z,6.87
2019-05-18T22:35:29.275Z,7.03
2019-05-18T22:38:19.460Z,7.17
2019-05-18T22:41:09.695Z,6.77
2019-05-18T22:43:59.963Z,7.27
2019-05-18T22:46:50.064Z,7.37
2019-05-18T22:49:41.250Z,7.47
2019-05-18T22:52:31.709Z,6.83
2019-05-18T22:55:21.950Z,7.13
2019-05-18T22:58:12.165Z,6.37
2019-05-18T23:01:02.547Z,6.30
2019-05-18T23:03:52.803Z,6.30
2019-05-18T23:06:42.943Z,6.50
2019-05-18T23:09:32.969Z,6.70
2019-05-18T23:12:23.149Z,6.53
2019-05-18T23:15:13.377Z,6.00
2019-05-18T23:18:03.598Z,6.03
2019-05-18T23:20:53.958Z,6.20
2019-05-18T23:23:43.976Z,6.30
2019-05-18T23:26:34.437Z,6.37
2019-05-18T23:29:24.679Z,6.87
2019-05-18T23:32:15.020Z,6.53
2019-05-18T23:35:05.219Z,6.03
2019-05-18T23:37:55.286Z,5.93
2019-05-18T23:40:45.479Z,6.30
2019-05-18T23:43:35.489Z,6.07
2019-05-18T23:46:25.739Z,6.40
2019-05-18T23:49:15.971Z,6.63
2019-05-18T23:52:06.301Z,6.73
2019-05-18T23:54:56.682Z,5.33
2019-05-18T23:57:46.955Z,5.63
